createdAt,value
2022-09-23T00:00:32.125Z,100071.41
2022-09-23T00:02:04.609Z,100066.75
2022-09-23T00:03:37.388Z,100062.59
2022-09-23T00:05:10.440Z,100063.13
2022-09-23T00:06:44.157Z,100067.03
2022-09-23T00:08:16.023Z,100065.06
2022-09-23T00:09:47.953Z,100066.22
2022-09-23T00:11:24.071Z,100071.13
2022-09-23T00:12:56.138Z,100065.91
2022-09-23T00:14:28.006Z,100068.81
2022-09-23T00:16:14.990Z,100060.91
2022-09-23T00:17:47.424Z,100069.00
2022-09-23T00:19:19.290Z,100063.59
2022-09-23T00:20:51.236Z,100067.75
2022-09-23T00:22:23.146Z,100067.25
2022-09-23T00:23:54.990Z,100060.41
2022-09-23T00:25:29.793Z,100053.53
2022-09-23T00:27:01.659Z,100061.63
2022-09-23T00:28:34.127Z,100055.50
2022-09-23T00:30:07.112Z,100051.56
2022-09-23T00:31:38.889Z,100048.13
2022-09-23T00:33:10.746Z,100062.34
2022-09-23T00:34:44.365Z,100055.94
2022-09-23T00:36:16.346Z,100048.34
2022-09-23T00:37:48.264Z,100048.84
2022-09-23T00:39:20.275Z,100045.44
2022-09-23T00:40:52.238Z,100048.13
2022-09-23T00:42:24.305Z,100047.22
2022-09-23T00:43:57.873Z,100045.97
2022-09-23T00:45:29.961Z,100043.25
2022-09-23T00:47:01.830Z,100044.00
2022-09-23T00:48:34.615Z,100037.88
2022-09-23T00:50:10.243Z,100043.06
2022-09-23T00:51:45.622Z,100036.91
2022-09-23T00:53:21.178Z,100031.88
2022-09-23T00:54:55.280Z,100037.06
2022-09-23T00:56:27.285Z,100021.38
2022-09-23T00:58:01.454Z,100032.69
2022-09-23T00:59:33.605Z,100032.47
2022-09-23T01:01:05.764Z,100031.56
2022-09-23T01:02:37.921Z,100035.50
2022-09-23T01:04:09.945Z,100023.28
2022-09-23T01:05:42.626Z,100024.50
2022-09-23T01:07:14.529Z,100017.66
2022-09-23T01:08:47.590Z,100016.72
2022-09-23T01:10:19.757Z,100023.16
2022-09-23T01:12:03.716Z,100023.47
2022-09-23T01:13:47.018Z,100024.00
2022-09-23T01:15:21.746Z,100018.72
2022-09-23T01:17:27.394Z,100019.94
2022-09-23T01:19:08.524Z,100016.84
2022-09-23T01:20:59.452Z,100017.88
2022-09-23T01:22:38.469Z,100018.38
2022-09-23T01:24:10.331Z,100016.75
2022-09-23T01:26:01.231Z,100015.25
2022-09-23T01:27:56.340Z,100018.50
2022-09-23T01:29:46.822Z,100014.53
2022-09-23T01:31:37.493Z,100018.50
2022-09-23T01:33:15.604Z,100022.63
2022-09-23T01:35:08.502Z,100022.63
2022-09-23T01:36:43.901Z,100014.53
2022-09-23T01:38:25.265Z,100022.63
2022-09-23T01:40:02.120Z,100017.22
2022-09-23T01:41:33.968Z,100016.34
2022-09-23T01:43:15.710Z,100015.81
2022-09-23T01:44:56.980Z,100026.06
2022-09-23T01:46:52.040Z,100019.44
2022-09-23T01:48:27.865Z,100021.59
2022-09-23T01:50:30.965Z,100018.69
2022-09-23T01:52:05.873Z,100013.13
2022-09-23T01:53:46.619Z,100011.66
2022-09-23T01:55:25.776Z,100017.56
2022-09-23T01:57:01.712Z,100012.69
2022-09-23T01:58:46.631Z,100014.66
2022-09-23T02:00:20.213Z,100014.44
2022-09-23T02:02:25.321Z,100010.50
2022-09-23T02:04:10.203Z,100022.53
2022-09-23T02:05:48.230Z,100021.06
2022-09-23T02:07:41.670Z,100016.94
2022-09-23T02:09:31.776Z,100009.88
2022-09-23T02:11:18.593Z,100020.47
2022-09-23T02:13:11.555Z,100006.03
2022-09-23T02:15:07.236Z,100013.41
2022-09-23T02:16:56.175Z,100007.06
2022-09-23T02:18:49.842Z,100004.88
2022-09-23T02:20:39.644Z,100000.50
2022-09-23T02:22:35.968Z,100011.09
2022-09-23T02:24:27.316Z,100008.94
2022-09-23T02:26:14.158Z,100007.47
2022-09-23T02:28:07.585Z,100010.47
2022-09-23T02:30:02.946Z,100008.81
2022-09-23T02:31:50.500Z,100009.09
2022-09-23T02:33:41.794Z,100013.13
2022-09-23T02:35:34.750Z,100011.25
2022-09-23T02:37:21.637Z,100015.81
2022-09-23T02:39:10.788Z,100013.91
2022-09-23T02:41:04.695Z,100013.50
2022-09-23T02:43:10.789Z,100022.94
2022-09-23T02:44:59.004Z,100009.00
2022-09-23T02:46:46.295Z,100008.59
2022-09-23T02:48:40.726Z,100018.41
2022-09-23T02:50:27.516Z,100013.84
2022-09-23T02:52:14.392Z,100011.44
2022-09-23T02:54:03.564Z,100010.28
2022-09-23T02:55:51.114Z,100011.28
2022-09-23T02:57:38.121Z,100015.03
2022-09-23T02:59:24.954Z,100013.66
2022-09-23T03:01:31.518Z,100008.34
2022-09-23T03:03:33.929Z,100006.44
2022-09-23T03:05:31.247Z,100008.91
2022-09-23T03:07:21.039Z,100000.31
2022-09-23T03:09:15.164Z,99994.44
2022-09-23T03:11:06.951Z,100000.53
2022-09-23T03:13:00.529Z,100005.13
2022-09-23T03:14:58.690Z,100002.94
2022-09-23T03:16:48.056Z,99992.66
2022-09-23T03:18:45.815Z,100000.25
2022-09-23T03:20:50.183Z,99998.28
2022-09-23T03:22:44.880Z,99994.88
2022-09-23T03:24:32.898Z,99996.53
2022-09-23T03:26:23.242Z,99998.75
2022-09-23T03:28:11.169Z,99998.00
2022-09-23T03:29:58.583Z,99988.69
2022-09-23T03:31:45.607Z,100001.44
2022-09-23T03:33:33.201Z,99990.44
2022-09-23T03:35:22.514Z,99993.63
2022-09-23T03:37:24.396Z,99990.72
2022-09-23T03:39:20.320Z,99991.22
2022-09-23T03:41:09.806Z,99989.06
2022-09-23T03:42:57.490Z,99991.75
2022-09-23T03:44:45.679Z,99986.84
2022-09-23T03:46:34.060Z,99988.59
2022-09-23T03:48:22.370Z,99985.69
2022-09-23T03:50:09.490Z,99987.66
2022-09-23T03:51:56.297Z,99989.13
2022-09-23T03:53:43.299Z,99987.16
2022-09-23T03:55:30.096Z,99982.28
2022-09-23T03:57:16.967Z,99986.44
2022-09-23T03:59:03.833Z,99986.44
2022-09-23T04:00:50.719Z,99988.59
2022-09-23T04:02:37.542Z,99987.88
2022-09-23T04:04:24.654Z,99982.06
2022-09-23T04:06:11.486Z,99984.53
2022-09-23T04:07:58.327Z,99983.81
2022-09-23T04:09:48.706Z,99982.38
2022-09-23T04:11:39.197Z,99978.94
2022-09-23T04:13:29.520Z,99985.06
2022-09-23T04:15:20.072Z,99984.31
2022-09-23T04:17:11.245Z,99987.75
2022-09-23T04:19:01.433Z,99980.66
2022-09-23T04:20:51.986Z,99985.13
2022-09-23T04:22:42.874Z,99988.31
2022-09-23T04:24:33.291Z,99978.78
2022-09-23T04:26:23.567Z,99982.19
2022-09-23T04:28:14.386Z,99982.75
2022-09-23T04:30:05.203Z,99976.38
2022-09-23T04:31:55.854Z,99979.59
2022-09-23T04:33:46.394Z,99979.38
2022-09-23T04:35:40.350Z,99978.63
2022-09-23T04:37:31.398Z,99977.91
2022-09-23T04:39:21.592Z,99976.94
2022-09-23T04:41:12.629Z,99977.47
2022-09-23T04:43:03.308Z,99975.28
2022-09-23T04:44:53.995Z,99979.94
2022-09-23T04:46:47.547Z,99979.94
2022-09-23T04:48:39.160Z,99982.63
2022-09-23T04:50:29.591Z,99977.97
2022-09-23T04:52:20.178Z,99985.31
2022-09-23T04:54:11.990Z,99986.78
2022-09-23T04:56:03.005Z,99980.16
2022-09-23T04:57:53.461Z,99991.16
2022-09-23T04:59:45.344Z,99995.28
2022-09-23T05:01:36.508Z,99991.38
2022-09-23T05:03:27.341Z,99993.78
2022-09-23T05:05:22.349Z,99994.75
2022-09-23T05:07:13.195Z,99997.34
2022-09-23T05:09:08.088Z,99991.88
2022-09-23T05:10:58.970Z,99998.66
2022-09-23T05:12:52.458Z,99996.88
2022-09-23T05:14:45.444Z,99998.06
2022-09-23T05:16:36.142Z,99996.31
2022-09-23T05:18:27.990Z,99997.50
2022-09-23T05:20:19.221Z,100001.31
2022-09-23T05:22:09.524Z,100005.19
2022-09-23T05:24:00.937Z,100013.19
2022-09-23T05:26:02.101Z,100009.91
2022-09-23T05:27:52.685Z,100004.44
2022-09-23T05:29:42.905Z,100011.91
2022-09-23T05:31:33.700Z,100007.69
2022-09-23T05:33:23.871Z,100015.38
2022-09-23T05:35:14.280Z,100009.81
2022-09-23T05:37:05.427Z,100018.31
2022-09-23T05:38:58.998Z,100015.63
2022-09-23T05:40:59.539Z,100018.78
2022-09-23T05:42:51.454Z,100016.41
2022-09-23T05:44:42.042Z,100023.41
2022-09-23T05:46:33.201Z,100029.50
2022-09-23T05:48:23.713Z,100024.47
2022-09-23T05:50:14.053Z,100022.28
2022-09-23T05:52:04.450Z,100022.25
2022-09-23T05:53:55.705Z,100025.47
2022-09-23T05:55:46.115Z,100028.03
2022-09-23T05:57:36.753Z,100036.44
2022-09-23T05:59:26.877Z,100034.31
2022-09-23T06:01:18.540Z,100034.06
2022-09-23T06:03:13.317Z,100036.25
2022-09-23T06:05:03.621Z,100040.38
2022-09-23T06:06:53.800Z,100036.81
2022-09-23T06:08:45.055Z,100039.56
2022-09-23T06:10:39.178Z,100048.47
2022-09-23T06:12:29.379Z,100031.19
2022-09-23T06:14:19.810Z,100041.69
2022-09-23T06:16:14.908Z,100036.81
2022-09-23T06:18:05.900Z,100035.72
2022-09-23T06:19:56.081Z,100030.13
2022-09-23T06:21:48.709Z,100033.09
2022-09-23T06:23:41.627Z,100034.19
2022-09-23T06:25:35.326Z,100038.88
2022-09-23T06:27:25.782Z,100037.63
2022-09-23T06:29:16.255Z,100039.31
2022-09-23T06:31:14.959Z,100038.41
2022-09-23T06:33:05.402Z,100037.38
2022-09-23T06:34:55.722Z,100048.50
2022-09-23T06:36:46.721Z,100047.88
2022-09-23T06:38:49.296Z,100051.88
2022-09-23T06:40:40.174Z,100048.81
2022-09-23T06:42:30.675Z,100056.41
2022-09-23T06:44:21.178Z,100063.38
2022-09-23T06:46:13.914Z,100061.06
2022-09-23T06:48:06.149Z,100056.47
2022-09-23T06:49:56.197Z,100056.56
2022-09-23T06:51:46.594Z,100062.88
2022-09-23T06:53:37.413Z,100055.41
2022-09-23T06:55:27.853Z,100062.69
2022-09-23T06:57:17.996Z,100061.00
2022-09-23T06:59:10.781Z,100067.13
2022-09-23T07:01:02.498Z,100063.66
2022-09-23T07:02:52.904Z,100062.94
2022-09-23T07:04:43.616Z,100071.31
2022-09-23T07:06:34.109Z,100067.34
2022-09-23T07:08:26.468Z,100059.47
2022-09-23T07:10:16.926Z,100063.66
2022-09-23T07:12:07.320Z,100062.50
2022-09-23T07:13:57.861Z,100063.75
2022-09-23T07:15:52.313Z,100054.44
2022-09-23T07:17:43.185Z,100064.41
2022-09-23T07:19:36.213Z,100067.09
2022-09-23T07:21:27.943Z,100063.38
2022-09-23T07:23:18.311Z,100068.16
2022-09-23T07:25:09.646Z,100064.94
2022-09-23T07:27:00.254Z,100062.69
2022-09-23T07:28:57.715Z,100058.66
2022-09-23T07:30:58.277Z,100065.38
2022-09-23T07:32:50.672Z,100062.53
2022-09-23T07:34:41.199Z,100062.53
2022-09-23T07:36:32.876Z,100066.13
2022-09-23T07:38:30.461Z,100064.22
2022-09-23T07:40:20.910Z,100065.75
2022-09-23T07:42:12.479Z,100073.00
2022-09-23T07:44:03.614Z,100071.50
2022-09-23T07:45:54.632Z,100063.22
2022-09-23T07:47:45.510Z,100068.22
2022-09-23T07:49:36.231Z,100070.16
2022-09-23T07:51:33.280Z,100068.84
2022-09-23T07:53:26.786Z,100066.63
2022-09-23T07:55:20.986Z,100068.13
2022-09-23T07:57:11.875Z,100063.47
2022-09-23T07:59:05.875Z,100067.75
2022-09-23T08:01:01.162Z,100063.06
2022-09-23T08:02:53.089Z,100065.78
2022-09-23T08:04:43.697Z,100058.28
2022-09-23T08:06:34.464Z,100062.22
2022-09-23T08:08:25.017Z,100071.16
2022-09-23T08:10:19.123Z,100071.09
2022-09-23T08:12:15.215Z,100062.53
2022-09-23T08:14:07.925Z,100065.50
2022-09-23T08:15:58.828Z,100057.69
2022-09-23T08:17:49.643Z,100058.78
2022-09-23T08:19:40.139Z,100050.56
2022-09-23T08:21:30.710Z,100062.69
2022-09-23T08:23:21.307Z,100053.03
2022-09-23T08:25:12.065Z,100055.19
2022-09-23T08:27:02.446Z,100054.31
2022-09-23T08:28:55.129Z,100053.72
2022-09-23T08:30:47.971Z,100056.09
2022-09-23T08:32:39.427Z,100052.78
2022-09-23T08:34:29.778Z,100051.75
2022-09-23T08:36:20.361Z,100053.53
2022-09-23T08:38:11.263Z,100051.16
2022-09-23T08:40:01.843Z,100051.00
2022-09-23T08:41:58.810Z,100053.78
2022-09-23T08:43:52.859Z,100056.97
2022-09-23T08:45:43.761Z,100050.22
2022-09-23T08:47:52.540Z,100050.34
2022-09-23T08:49:46.023Z,100058.75
2022-09-23T08:51:41.150Z,100051.88
2022-09-23T08:53:36.148Z,100046.94
2022-09-23T08:55:46.076Z,100045.19
2022-09-23T08:58:24.362Z,100036.00
2022-09-23T09:00:19.169Z,100031.25
2022-09-23T09:02:15.138Z,100034.56
2022-09-23T09:04:14.789Z,100031.25
2022-09-23T09:06:05.287Z,100034.69
2022-09-23T09:07:57.632Z,100032.25
2022-09-23T09:10:18.667Z,100032.72
2022-09-23T09:12:11.923Z,100031.03
2022-09-23T09:14:17.422Z,100034.47
2022-09-23T09:16:18.822Z,100031.59
2022-09-23T09:18:21.398Z,100029.56
2022-09-23T09:20:14.962Z,100027.72
2022-09-23T09:22:09.364Z,100034.19
2022-09-23T09:24:00.346Z,100023.56
2022-09-23T09:25:52.124Z,100026.47
2022-09-23T09:27:42.438Z,100025.16
2022-09-23T09:29:38.980Z,100022.03
2022-09-23T09:31:43.558Z,100016.28
2022-09-23T09:33:41.085Z,100017.28
2022-09-23T09:35:40.783Z,100023.06
2022-09-23T09:37:35.902Z,100014.88
2022-09-23T09:39:27.365Z,100010.97
2022-09-23T09:41:18.382Z,100007.25
2022-09-23T09:43:08.730Z,100011.13
2022-09-23T09:45:02.881Z,100011.69
2022-09-23T09:47:06.737Z,100006.97
2022-09-23T09:49:00.773Z,100000.91
2022-09-23T09:50:52.223Z,99999.03
2022-09-23T09:52:43.325Z,99998.72
2022-09-23T09:54:33.751Z,99994.53
2022-09-23T09:56:07.512Z,99997.53
2022-09-23T09:57:52.216Z,99993.09
2022-09-23T09:59:28.179Z,99994.81
2022-09-23T10:01:00.251Z,99989.72
2022-09-23T10:02:35.857Z,99999.06
2022-09-23T10:04:33.108Z,99993.91
2022-09-23T10:06:15.210Z,99988.50
2022-09-23T10:07:48.635Z,99995.81
2022-09-23T10:09:34.770Z,99990.03
2022-09-23T10:11:15.175Z,99990.72
2022-09-23T10:12:49.123Z,99986.31
2022-09-23T10:14:20.953Z,99980.69
2022-09-23T10:15:55.015Z,99982.13
2022-09-23T10:17:26.948Z,99980.56
2022-09-23T10:19:00.455Z,99986.31
2022-09-23T10:20:37.997Z,99997.53
2022-09-23T10:22:16.426Z,99985.31
2022-09-23T10:23:52.171Z,99982.97
2022-09-23T10:25:26.753Z,99981.41
2022-09-23T10:27:01.021Z,99975.66
2022-09-23T10:28:40.371Z,99972.50
2022-09-23T10:30:15.302Z,99977.38
2022-09-23T10:31:47.314Z,99973.97
2022-09-23T10:33:28.337Z,99979.16
2022-09-23T10:35:16.861Z,99973.56
2022-09-23T10:37:02.680Z,99969.34
2022-09-23T10:38:34.600Z,99968.16
2022-09-23T10:40:36.078Z,99965.41
2022-09-23T10:42:37.805Z,99968.09
2022-09-23T10:44:28.386Z,99968.91
2022-09-23T10:46:22.153Z,99970.34
2022-09-23T10:48:10.240Z,99960.75
2022-09-23T10:49:50.970Z,99967.56
2022-09-23T10:51:33.318Z,99964.56
2022-09-23T10:53:30.074Z,99965.28
2022-09-23T10:55:39.486Z,99968.50
2022-09-23T10:57:54.515Z,99963.72
2022-09-23T10:59:29.252Z,99958.47
2022-09-23T11:01:04.328Z,99960.19
2022-09-23T11:03:02.943Z,99956.44
2022-09-23T11:05:04.881Z,99954.03
2022-09-23T11:06:55.676Z,99959.00
2022-09-23T11:08:27.563Z,99955.56
2022-09-23T11:10:02.652Z,99954.31
2022-09-23T11:11:34.465Z,99952.69
2022-09-23T11:13:09.224Z,99949.28
2022-09-23T11:14:50.426Z,99947.00
2022-09-23T11:16:41.255Z,99946.63
2022-09-23T11:18:13.111Z,99944.41
2022-09-23T11:19:57.909Z,99945.88
2022-09-23T11:21:38.631Z,99939.66
2022-09-23T11:23:10.672Z,99941.84
2022-09-23T11:24:58.395Z,99936.13
2022-09-23T11:26:45.274Z,99939.09
2022-09-23T11:28:26.205Z,99933.97
2022-09-23T11:29:58.129Z,99928.75
2022-09-23T11:31:36.046Z,99937.44
2022-09-23T11:33:27.136Z,99927.41
2022-09-23T11:35:17.540Z,99931.06
2022-09-23T11:36:56.341Z,99925.72
2022-09-23T11:38:33.858Z,99925.09
2022-09-23T11:40:13.244Z,99924.50
2022-09-23T11:41:46.886Z,99925.81
2022-09-23T11:43:21.722Z,99926.84
2022-09-23T11:44:58.833Z,99926.00
2022-09-23T11:46:34.556Z,99916.28
2022-09-23T11:48:11.550Z,99919.94
2022-09-23T11:49:50.351Z,99912.09
2022-09-23T11:51:27.113Z,99912.00
2022-09-23T11:53:04.942Z,99912.00
2022-09-23T11:54:49.790Z,99905.66
2022-09-23T11:56:34.840Z,99908.66
2022-09-23T11:58:24.441Z,99909.66
2022-09-23T12:00:06.477Z,99907.41
2022-09-23T12:01:45.403Z,99900.28
2022-09-23T12:03:43.531Z,99901.75
2022-09-23T12:05:18.489Z,99894.00
2022-09-23T12:06:54.655Z,99897.13
2022-09-23T12:08:26.792Z,99891.31
2022-09-23T12:10:03.701Z,99893.00
2022-09-23T12:11:48.996Z,99887.41
2022-09-23T12:13:25.461Z,99887.81
2022-09-23T12:15:03.408Z,99882.09
2022-09-23T12:16:39.088Z,99884.00
2022-09-23T12:18:23.454Z,99885.09
2022-09-23T12:20:05.151Z,99877.66
2022-09-23T12:21:50.560Z,99879.22
2022-09-23T12:23:25.749Z,99882.44
2022-09-23T12:25:00.755Z,99881.03
2022-09-23T12:26:33.533Z,99875.31
2022-09-23T12:28:11.328Z,99870.91
2022-09-23T12:29:43.385Z,99873.56
2022-09-23T12:31:19.352Z,99879.63
2022-09-23T12:32:51.466Z,99876.78
2022-09-23T12:34:27.719Z,99866.75
2022-09-23T12:36:07.066Z,99870.75
2022-09-23T12:37:39.056Z,99867.81
2022-09-23T12:39:17.285Z,99867.47
2022-09-23T12:40:49.638Z,99867.00
2022-09-23T12:42:24.325Z,99867.94
2022-09-23T12:44:15.975Z,99870.84
2022-09-23T12:45:48.172Z,99871.03
2022-09-23T12:47:28.088Z,99863.28
2022-09-23T12:49:01.127Z,99860.25
2022-09-23T12:50:48.136Z,99862.31
2022-09-23T12:52:20.034Z,99862.72
2022-09-23T12:53:54.024Z,99857.22
2022-09-23T12:55:34.929Z,99855.88
2022-09-23T12:57:40.377Z,99853.94
2022-09-23T12:59:44.722Z,99861.78
2022-09-23T13:01:21.039Z,99850.63
2022-09-23T13:03:20.787Z,99849.50
2022-09-23T13:05:16.976Z,99842.59
2022-09-23T13:07:08.350Z,99842.47
2022-09-23T13:08:41.503Z,99843.50
2022-09-23T13:10:39.364Z,99843.72
2022-09-23T13:12:25.749Z,99842.03
2022-09-23T13:14:00.712Z,99831.25
2022-09-23T13:15:36.407Z,99826.53
2022-09-23T13:17:21.350Z,99832.25
2022-09-23T13:18:54.866Z,99830.00
2022-09-23T13:20:36.568Z,99826.53
2022-09-23T13:22:09.613Z,99827.38
2022-09-23T13:24:01.477Z,99830.91
2022-09-23T13:25:39.002Z,99827.47
2022-09-23T13:27:13.768Z,99820.66
2022-09-23T13:28:56.877Z,99824.22
2022-09-23T13:30:28.899Z,99817.59
2022-09-23T13:32:01.736Z,99816.25
2022-09-23T13:33:47.385Z,99812.28
2022-09-23T13:35:36.795Z,99807.50
2022-09-23T13:37:21.484Z,99805.66
2022-09-23T13:39:13.136Z,99809.13
2022-09-23T13:40:45.238Z,99804.53
2022-09-23T13:42:27.590Z,99802.28
2022-09-23T13:43:59.613Z,99799.41
2022-09-23T13:45:32.204Z,99797.38
2022-09-23T13:47:04.274Z,99793.81
2022-09-23T13:48:36.201Z,99801.44
2022-09-23T13:50:13.261Z,99801.38
2022-09-23T13:51:45.412Z,99798.63
2022-09-23T13:53:23.392Z,99793.13
2022-09-23T13:54:55.704Z,99796.44
2022-09-23T13:56:29.282Z,99790.84
2022-09-23T13:58:05.729Z,99798.38
2022-09-23T13:59:41.041Z,99792.78
2022-09-23T14:01:22.241Z,99794.81
2022-09-23T14:02:54.148Z,99788.47
2022-09-23T14:04:26.191Z,99782.69
2022-09-23T14:06:01.666Z,99786.63
2022-09-23T14:07:33.610Z,99781.06
2022-09-23T14:09:06.134Z,99785.13
2022-09-23T14:10:43.750Z,99782.25
2022-09-23T14:12:21.961Z,99782.25
2022-09-23T14:13:55.131Z,99779.50
2022-09-23T14:15:27.063Z,99775.97
2022-09-23T14:16:59.359Z,99780.00
2022-09-23T14:18:36.584Z,99779.78
2022-09-23T14:20:15.371Z,99780.28
2022-09-23T14:21:48.391Z,99774.59
2022-09-23T14:23:20.372Z,99779.25
2022-09-23T14:24:52.863Z,99766.63
2022-09-23T14:26:25.275Z,99762.97
2022-09-23T14:28:00.344Z,99765.56
2022-09-23T14:29:37.129Z,99764.06
2022-09-23T14:31:09.146Z,99762.50
2022-09-23T14:32:41.939Z,99761.69
2022-09-23T14:34:32.527Z,99762.88
2022-09-23T14:36:29.097Z,99764.66
2022-09-23T14:38:19.815Z,99756.81
2022-09-23T14:39:55.747Z,99755.28
2022-09-23T14:41:34.005Z,99751.72
2022-09-23T14:43:08.634Z,99755.66
2022-09-23T14:44:40.934Z,99757.59
2022-09-23T14:46:16.243Z,99746.50
2022-09-23T14:47:52.790Z,99747.72
2022-09-23T14:49:25.206Z,99741.97
2022-09-23T14:51:13.236Z,99737.03
2022-09-23T14:52:49.914Z,99737.38
2022-09-23T14:54:40.080Z,99731.66
2022-09-23T14:56:13.796Z,99736.19
2022-09-23T14:57:46.143Z,99731.81
2022-09-23T14:59:34.275Z,99724.69
2022-09-23T15:01:22.150Z,99728.38
2022-09-23T15:02:58.561Z,99723.81
2022-09-23T15:04:32.389Z,99730.38
2022-09-23T15:06:08.854Z,99723.97
2022-09-23T15:07:41.015Z,99720.88
2022-09-23T15:09:39.364Z,99726.13
2022-09-23T15:11:11.603Z,99716.97
2022-09-23T15:12:46.957Z,99723.53
2022-09-23T15:14:37.266Z,99728.03
2022-09-23T15:16:12.157Z,99726.25
2022-09-23T15:17:44.461Z,99722.56
2022-09-23T15:19:19.143Z,99725.63
2022-09-23T15:20:52.337Z,99717.06
2022-09-23T15:22:24.947Z,99724.91
2022-09-23T15:23:57.390Z,99721.78
2022-09-23T15:25:40.138Z,99719.28
2022-09-23T15:27:23.190Z,99720.94
2022-09-23T15:28:56.221Z,99714.97
2022-09-23T15:30:28.732Z,99717.81
2022-09-23T15:32:00.885Z,99712.41
2022-09-23T15:33:35.272Z,99713.09
2022-09-23T15:35:07.841Z,99712.31
2022-09-23T15:36:39.985Z,99708.19
2022-09-23T15:38:12.286Z,99701.25
2022-09-23T15:39:44.381Z,99716.88
2022-09-23T15:41:17.469Z,99710.63
2022-09-23T15:42:53.040Z,99707.81
2022-09-23T15:44:29.598Z,99706.28
2022-09-23T15:46:22.268Z,99704.75
2022-09-23T15:47:55.803Z,99701.06
2022-09-23T15:49:39.026Z,99705.13
2022-09-23T15:51:14.185Z,99696.97
2022-09-23T15:52:48.298Z,99698.53
2022-09-23T15:54:21.706Z,99686.38
2022-09-23T15:55:54.169Z,99699.44
2022-09-23T15:57:26.124Z,99694.16
2022-09-23T15:58:57.965Z,99690.88
2022-09-23T16:00:29.956Z,99690.31
2022-09-23T16:02:05.785Z,99687.72
2022-09-23T16:03:38.546Z,99689.16
2022-09-23T16:05:18.774Z,99687.16
2022-09-23T16:06:50.748Z,99693.31
2022-09-23T16:08:24.108Z,99693.44
2022-09-23T16:09:58.700Z,99689.41
2022-09-23T16:11:31.929Z,99691.56
2022-09-23T16:13:06.328Z,99692.25
2022-09-23T16:14:38.215Z,99692.38
2022-09-23T16:16:10.876Z,99695.06
2022-09-23T16:17:44.338Z,99691.16
2022-09-23T16:19:17.730Z,99697.47
2022-09-23T16:20:50.278Z,99693.00
2022-09-23T16:22:22.206Z,99690.53
2022-09-23T16:23:54.993Z,99696.97
2022-09-23T16:25:28.395Z,99695.78
2022-09-23T16:27:03.090Z,99695.47
2022-09-23T16:28:35.069Z,99697.56
2022-09-23T16:30:07.632Z,99691.69
2022-09-23T16:31:39.714Z,99695.22
2022-09-23T16:33:11.795Z,99696.19
2022-09-23T16:34:46.178Z,99696.47
2022-09-23T16:36:25.951Z,99698.13
2022-09-23T16:37:57.836Z,99692.22
2022-09-23T16:39:29.712Z,99691.75
2022-09-23T16:41:03.038Z,99703.59
2022-09-23T16:42:35.354Z,99697.66
2022-09-23T16:44:08.299Z,99692.50
2022-09-23T16:45:40.290Z,99693.28
2022-09-23T16:47:12.321Z,99696.09
2022-09-23T16:48:49.720Z,99694.91
2022-09-23T16:50:24.378Z,99707.13
2022-09-23T16:51:56.261Z,99701.03
2022-09-23T16:53:28.949Z,99697.84
2022-09-23T16:55:00.931Z,99705.34
2022-09-23T16:56:33.142Z,99703.41
2022-09-23T16:58:05.227Z,99700.03
2022-09-23T16:59:55.546Z,99701.34
2022-09-23T17:02:04.528Z,99712.66
2022-09-23T17:03:55.069Z,99703.28
2022-09-23T17:05:34.058Z,99703.50
2022-09-23T17:07:07.904Z,99696.84
2022-09-23T17:08:40.846Z,99699.22
2022-09-23T17:10:12.794Z,99693.47
2022-09-23T17:11:47.821Z,99696.56
2022-09-23T17:13:19.818Z,99695.34
2022-09-23T17:14:52.497Z,99692.28
2022-09-23T17:16:26.027Z,99706.78
2022-09-23T17:17:57.929Z,99700.47
2022-09-23T17:19:37.934Z,99699.56
2022-09-23T17:21:09.852Z,99702.09
2022-09-23T17:23:00.246Z,99698.50
2022-09-23T17:24:43.134Z,99701.06
2022-09-23T17:26:15.157Z,99701.41
2022-09-23T17:27:47.609Z,99698.53
2022-09-23T17:29:19.547Z,99700.38
2022-09-23T17:31:10.221Z,99702.16
2022-09-23T17:32:42.650Z,99702.72
2022-09-23T17:34:14.662Z,99708.53
2022-09-23T17:35:46.733Z,99705.44
2022-09-23T17:37:18.737Z,99713.22
2022-09-23T17:38:53.469Z,99711.44
2022-09-23T17:40:26.197Z,99714.00
2022-09-23T17:41:58.551Z,99713.09
2022-09-23T17:43:31.689Z,99711.47
2022-09-23T17:45:03.882Z,99717.44
2022-09-23T17:46:35.788Z,99711.84
2022-09-23T17:48:07.680Z,99717.28
2022-09-23T17:49:39.525Z,99709.53
2022-09-23T17:51:15.775Z,99710.78
2022-09-23T17:52:48.066Z,99717.28
2022-09-23T17:54:20.102Z,99717.81
2022-09-23T17:56:11.885Z,99710.25
2022-09-23T17:57:43.849Z,99714.38
2022-09-23T17:59:15.814Z,99720.72
2022-09-23T18:00:47.761Z,99714.56
2022-09-23T18:02:20.994Z,99719.06
2022-09-23T18:03:53.964Z,99712.81
2022-09-23T18:05:25.883Z,99720.19
2022-09-23T18:06:57.836Z,99718.03
2022-09-23T18:08:30.351Z,99715.88
2022-09-23T18:10:02.284Z,99719.81
2022-09-23T18:11:35.572Z,99717.66
2022-09-23T18:13:07.467Z,99724.91
2022-09-23T18:14:39.374Z,99722.72
2022-09-23T18:16:11.438Z,99712.97
2022-09-23T18:17:43.454Z,99720.38
2022-09-23T18:19:19.259Z,99718.94
2022-09-23T18:20:51.113Z,99716.06
2022-09-23T18:22:23.139Z,99711.91
2022-09-23T18:23:59.848Z,99709.75
2022-09-23T18:25:39.868Z,99714.44
2022-09-23T18:27:12.062Z,99718.22
2022-09-23T18:28:44.310Z,99718.78
2022-09-23T18:30:17.106Z,99714.44
2022-09-23T18:31:51.077Z,99711.38
2022-09-23T18:33:23.811Z,99713.56
2022-09-23T18:34:55.745Z,99713.91
2022-09-23T18:36:29.001Z,99708.13
2022-09-23T18:38:00.946Z,99709.94
2022-09-23T18:39:32.845Z,99711.75
2022-09-23T18:41:04.844Z,99714.25
2022-09-23T18:42:40.333Z,99715.53
2022-09-23T18:44:12.285Z,99714.81
2022-09-23T18:45:44.133Z,99716.06
2022-09-23T18:47:35.983Z,99715.19
2022-09-23T18:49:27.246Z,99717.16
2022-09-23T18:50:59.177Z,99711.22
2022-09-23T18:52:31.079Z,99712.66
2022-09-23T18:54:03.679Z,99715.53
2022-09-23T18:55:36.222Z,99710.13
2022-09-23T18:57:08.563Z,99709.41
2022-09-23T18:58:45.109Z,99714.81
2022-09-23T19:00:17.049Z,99706.88
2022-09-23T19:01:50.116Z,99702.19
2022-09-23T19:03:22.214Z,99714.47
2022-09-23T19:04:54.990Z,99713.75
2022-09-23T19:06:26.946Z,99703.44
2022-09-23T19:07:58.899Z,99708.66
2022-09-23T19:09:30.825Z,99709.22
2022-09-23T19:11:04.037Z,99704.34
2022-09-23T19:12:36.728Z,99712.47
2022-09-23T19:14:11.254Z,99700.22
2022-09-23T19:15:43.548Z,99707.06
2022-09-23T19:17:16.303Z,99711.03
2022-09-23T19:18:49.038Z,99704.91
2022-09-23T19:20:22.376Z,99709.75
2022-09-23T19:21:54.824Z,99700.22
2022-09-23T19:23:28.085Z,99711.03
2022-09-23T19:25:00.031Z,99706.88
2022-09-23T19:26:34.355Z,99708.66
2022-09-23T19:28:08.339Z,99703.63
2022-09-23T19:29:40.349Z,99702.19
2022-09-23T19:31:15.325Z,99715.00
2022-09-23T19:32:49.043Z,99701.47
2022-09-23T19:34:24.806Z,99711.56
2022-09-23T19:35:58.489Z,99703.47
2022-09-23T19:37:30.409Z,99708.31
2022-09-23T19:39:03.877Z,99706.34
2022-09-23T19:40:37.273Z,99700.22
2022-09-23T19:42:09.345Z,99705.63
2022-09-23T19:43:41.279Z,99703.09
2022-09-23T19:45:13.284Z,99696.94
2022-09-23T19:46:53.411Z,99702.34
2022-09-23T19:48:28.310Z,99698.91
2022-09-23T19:50:00.276Z,99688.09
2022-09-23T19:51:34.164Z,99702.19
2022-09-23T19:53:06.841Z,99694.22